Terminal Aerodrome Forecast
Issued by NWS

Home | Current Version | Previous Version | Graphics & Text | Print | Product List | Glossary On
Versions: 1 2 3 4 5 6 7 8 9 10 11 12 13 14 15 16 17 18 19 20
356
FTUS43 KBIS 271125
TAFDIK
TAF
KDIK 271125Z 2712/2812 20006KT P6SM SCT250
     FM271600 17006KT P6SM SCT200
     FM272100 14008KT P6SM BKN200
     FM280800 11006KT P6SM SCT200=

USA.gov is the U.S. government's official web portal to all federal, state and local government web resources and services.